Terminal Aerodrome Forecast
Issued by NWS Chicago, IL

Home | Current Version | Previous Version | Text Only | Print | Product List | Glossary Off
Versions: 1 2 3 4 5 6 7 8 9 10 11 12 13 14 15 16 17 18 19 20 21 22 23 24 25 26 27 28 29 30 31 32 33 34

000
FTUS43 KLOT 251400 AAA
TAFRFD
TAF AMD
KRFD 251401Z 2514/2612 27010KT P6SM SCT030 SCT250
     FM251800 26009KT P6SM SCT020
      TEMPO 2518/2520 BKN020
     FM260000 23006KT P6SM SCT040 SCT250
     FM260500 18004KT P6SM BKN250
     FM261000 14006KT P6SM SCT150 BKN250=

USA.gov is the U.S. government's official web portal to all federal, state and local government web resources and services.